Time;durP1;ratioP1;P1;durP2;ratioP2;P2;SDS_P1;SDS_P2;PMS_P1;PMS_P2;Temp;Humidity;BMP_temperature;BMP_pressure;BME280_temperature;BME280_humidity;BME280_pressure;Samples;Min_cycle;Max_cycle;Signal;HPM_P1;HPM_P2
2023/08/31 00:01:48;;;;;;;40.55;37.42;;;10.50;99.90;;;;;;6239765;23;20382;-77
2023/08/31 00:04:17;;;;;;;40.28;37.45;;;10.50;99.90;;;;;;6240162;23;20335;-77
2023/08/31 00:06:44;;;;;;;34.22;31.38;;;10.50;99.90;;;;;;6239629;23;20110;-77
2023/08/31 00:09:11;;;;;;;33.63;31.08;;;10.50;99.90;;;;;;6239082;23;20019;-77
2023/08/31 00:11:37;;;;;;;37.97;35.17;;;10.60;99.90;;;;;;6240010;23;20489;-77
2023/08/31 00:14:02;;;;;;;36.05;33.42;;;10.50;99.90;;;;;;6214705;23;20023;-78
2023/08/31 00:16:29;;;;;;;30.20;27.73;;;10.50;99.90;;;;;;6214304;23;20443;-77
2023/08/31 00:18:56;;;;;;;39.25;36.20;;;10.50;99.90;;;;;;6241461;22;20027;-77
2023/08/31 00:21:22;;;;;;;33.08;30.70;;;10.60;99.90;;;;;;6214214;23;20116;-77
2023/08/31 00:23:48;;;;;;;31.40;28.75;;;10.60;99.90;;;;;;6214051;23;20008;-78
2023/08/31 00:26:14;;;;;;;29.85;27.45;;;10.70;99.90;;;;;;6241462;22;20011;-78
2023/08/31 00:28:42;;;;;;;32.58;29.88;;;10.70;99.90;;;;;;6214505;23;20016;-78
2023/08/31 00:31:08;;;;;;;32.15;28.00;;;10.70;99.90;;;;;;6214061;23;20012;-78
2023/08/31 00:33:34;;;;;;;32.40;30.15;;;10.80;99.90;;;;;;6214206;23;20008;-78
2023/08/31 00:36:03;;;;;;;30.25;27.23;;;10.70;99.90;;;;;;6239304;23;20008;-78
2023/08/31 00:38:30;;;;;;;39.97;37.35;;;10.80;99.90;;;;;;6239082;23;20082;-78
2023/08/31 00:40:56;;;;;;;30.90;28.52;;;10.80;99.90;;;;;;6239816;23;20022;-78
2023/08/31 00:43:21;;;;;;;35.10;32.67;;;10.80;99.90;;;;;;6239158;23;20048;-78
2023/08/31 00:45:50;;;;;;;35.42;32.47;;;10.80;99.90;;;;;;6213921;23;20103;-78
2023/08/31 00:48:17;;;;;;;32.00;29.45;;;10.70;99.90;;;;;;6241355;22;20008;-78
2023/08/31 00:50:46;;;;;;;35.30;32.45;;;10.80;99.90;;;;;;6239420;23;20091;-78
2023/08/31 00:53:13;;;;;;;36.10;33.53;;;10.70;99.90;;;;;;6240417;22;20019;-78
2023/08/31 00:55:39;;;;;;;35.72;32.83;;;10.70;99.90;;;;;;6239157;23;20019;-78
2023/08/31 00:58:09;;;;;;;35.75;33.13;;;10.70;99.90;;;;;;6213885;23;20015;-78
2023/08/31 01:01:04;;;;;;;33.30;31.00;;;10.60;99.90;;;;;;6239270;23;20012;-78
2023/08/31 01:03:37;;;;;;;34.22;31.95;;;10.60;99.90;;;;;;6239498;23;20048;-79
2023/08/31 01:06:10;;;;;;;35.35;32.85;;;10.50;99.90;;;;;;6238957;23;20143;-78
2023/08/31 01:08:53;;;;;;;35.85;33.25;;;10.60;99.90;;;;;;6239425;23;20435;-79
2023/08/31 01:11:26;;;;;;;33.95;31.45;;;10.40;99.90;;;;;;6213647;23;20342;-78
2023/08/31 01:13:56;;;;;;;;;;;10.40;99.90;;;;;;6239716;23;20012;-78
2023/08/31 01:16:24;;;;;;;40.08;37.35;;;10.30;99.90;;;;;;6239155;23;19911;-78
2023/08/31 01:18:51;;;;;;;33.65;31.33;;;10.30;99.90;;;;;;6238826;23;20012;-78
2023/08/31 01:21:20;;;;;;;33.47;31.17;;;10.30;99.90;;;;;;6240158;22;20094;-78
2023/08/31 01:23:53;;;;;;;32.05;29.30;;;10.30;99.90;;;;;;6239357;23;20024;-78
2023/08/31 01:26:20;;;;;;;37.92;35.20;;;10.20;99.90;;;;;;6238975;23;20095;-78
2023/08/31 01:28:47;;;;;;;38.28;35.28;;;10.20;99.90;;;;;;6213649;23;20009;-78
2023/08/31 01:31:13;;;;;;;37.10;34.60;;;10.10;99.90;;;;;;6238824;23;20091;-78
2023/08/31 01:33:39;;;;;;;40.13;37.38;;;10.10;99.90;;;;;;6238928;23;20008;-78
2023/08/31 01:36:27;;;;;;;33.92;31.55;;;10.10;99.90;;;;;;6238084;23;20015;-78
2023/08/31 01:39:17;;;;;;;41.30;38.30;;;10.00;99.90;;;;;;6212964;23;20016;-78
2023/08/31 01:41:50;;;;;;;45.00;42.05;;;10.00;99.90;;;;;;6219810;23;20074;-78
2023/08/31 01:44:18;;;;;;;40.80;37.97;;;9.90;99.90;;;;;;6239042;23;20392;-78
2023/08/31 01:46:52;;;;;;;40.00;37.42;;;9.90;99.90;;;;;;6240379;22;20008;-78
2023/08/31 01:49:20;;;;;;;27.88;25.95;;;9.80;99.90;;;;;;6238635;23;20058;-78
2023/08/31 01:51:46;;;;;;;36.35;33.47;;;9.80;99.90;;;;;;6238692;23;20012;-78
2023/08/31 01:54:11;;;;;;;39.83;36.22;;;9.90;99.90;;;;;;6238779;23;20015;-78
2023/08/31 01:56:37;;;;;;;32.78;30.35;;;9.90;99.90;;;;;;6213423;23;20158;-78
2023/08/31 01:59:03;;;;;;;38.78;36.17;;;9.70;99.90;;;;;;6240518;23;20072;-78
2023/08/31 02:01:29;;;;;;;37.83;34.88;;;9.70;99.90;;;;;;6213320;23;20012;-78
2023/08/31 02:03:55;;;;;;;28.13;26.13;;;9.60;99.90;;;;;;6238147;23;20074;-78
2023/08/31 02:06:20;;;;;;;36.83;33.78;;;9.60;99.90;;;;;;6213414;23;20020;-78
2023/08/31 02:08:47;;;;;;;29.48;27.27;;;9.60;99.90;;;;;;6238540;23;20391;-78
2023/08/31 02:11:13;;;;;;;31.35;29.27;;;9.60;99.90;;;;;;6240527;22;20043;-78
2023/08/31 02:13:39;;;;;;;36.55;33.97;;;9.60;99.90;;;;;;6238431;23;20435;-78
2023/08/31 02:16:05;;;;;;;27.33;25.25;;;9.90;99.90;;;;;;6239061;23;20301;-78
2023/08/31 02:18:30;;;;;;;26.60;24.50;;;9.60;99.90;;;;;;6239898;23;20050;-78
2023/08/31 02:20:57;;;;;;;39.85;37.15;;;9.50;99.90;;;;;;6238561;23;20008;-78
2023/08/31 02:23:23;;;;;;;38.55;36.10;;;9.50;99.90;;;;;;6238786;23;20370;-78
2023/08/31 02:25:48;;;;;;;30.02;27.67;;;9.50;99.90;;;;;;6240042;23;20401;-77
2023/08/31 02:28:14;;;;;;;28.95;26.73;;;9.50;99.90;;;;;;6240507;23;20015;-78
2023/08/31 02:30:39;;;;;;;25.73;23.98;;;9.50;99.90;;;;;;6213579;23;20012;-78
2023/08/31 02:33:05;;;;;;;42.28;39.35;;;9.50;99.90;;;;;;6240300;23;20070;-78
2023/08/31 02:35:31;;;;;;;36.72;34.17;;;9.50;99.90;;;;;;6240453;23;20063;-78
2023/08/31 02:37:56;;;;;;;35.38;32.80;;;9.50;99.90;;;;;;6214942;23;20035;-78
2023/08/31 02:40:22;;;;;;;26.77;24.77;;;9.40;99.90;;;;;;6240462;23;20012;-78
2023/08/31 02:42:52;;;;;;;32.10;29.63;;;9.40;99.90;;;;;;6240414;23;20019;-78
2023/08/31 02:45:18;;;;;;;29.08;27.13;;;9.40;99.90;;;;;;6242130;22;20008;-78
2023/08/31 02:47:43;;;;;;;32.05;29.55;;;9.40;99.90;;;;;;6241961;22;20355;-78
2023/08/31 02:50:09;;;;;;;32.08;29.80;;;9.40;99.90;;;;;;6215056;23;20019;-78
2023/08/31 02:52:35;;;;;;;37.45;34.80;;;9.40;99.90;;;;;;6240701;23;20016;-78
2023/08/31 02:55:00;;;;;;;26.63;23.92;;;9.40;99.90;;;;;;6242426;23;20012;-78
2023/08/31 02:57:26;;;;;;;36.88;33.85;;;9.40;99.90;;;;;;6240704;23;20016;-78
2023/08/31 02:59:52;;;;;;;31.20;29.17;;;9.40;99.90;;;;;;6242673;23;20008;-78
2023/08/31 03:02:18;;;;;;;24.98;23.38;;;9.40;99.90;;;;;;6239916;23;20466;-78
2023/08/31 03:04:43;;;;;;;36.10;33.00;;;9.40;99.90;;;;;;6214938;23;20579;-78
2023/08/31 03:07:13;;;;;;;37.28;34.45;;;9.40;99.90;;;;;;6240360;23;20447;-78
2023/08/31 03:09:39;;;;;;;27.33;25.40;;;9.60;99.90;;;;;;6240312;23;20016;-78
2023/08/31 03:12:05;;;;;;;37.78;34.72;;;9.40;99.90;;;;;;6240498;23;20083;-78
2023/08/31 03:14:31;;;;;;;31.50;29.13;;;9.40;99.90;;;;;;6214898;23;20564;-77
2023/08/31 03:16:56;;;;;;;40.38;37.75;;;9.40;99.90;;;;;;6214401;23;20009;-78
2023/08/31 03:19:22;;;;;;;25.23;22.92;;;9.40;99.90;;;;;;6240359;23;20085;-78
2023/08/31 03:21:48;;;;;;;27.75;25.33;;;9.30;99.90;;;;;;6240013;23;20019;-78
2023/08/31 03:24:13;;;;;;;23.85;21.55;;;9.40;99.90;;;;;;6239915;23;20083;-78
2023/08/31 03:26:39;;;;;;;36.90;34.58;;;9.30;99.90;;;;;;6240510;23;20054;-78
2023/08/31 03:29:05;;;;;;;42.50;39.08;;;9.40;99.90;;;;;;6215000;23;20016;-78
2023/08/31 03:31:31;;;;;;;25.98;23.77;;;9.50;99.90;;;;;;6239837;23;20452;-78
2023/08/31 03:33:57;;;;;;;36.80;34.30;;;9.40;99.90;;;;;;6239936;23;20016;-78
2023/08/31 03:36:23;;;;;;;28.90;26.85;;;9.50;99.90;;;;;;6241849;23;20046;-78
2023/08/31 03:38:49;;;;;;;28.55;26.20;;;9.40;99.90;;;;;;6240148;23;20016;-78
2023/08/31 03:41:15;;;;;;;40.50;37.63;;;9.50;99.90;;;;;;6214451;23;20045;-78
2023/08/31 03:43:40;;;;;;;30.02;27.33;;;9.50;99.90;;;;;;6239546;23;20012;-78
2023/08/31 03:46:06;;;;;;;40.88;37.28;;;9.70;99.90;;;;;;6239652;23;20249;-78
2023/08/31 03:48:32;;;;;;;31.98;29.50;;;9.70;99.90;;;;;;6241660;22;20443;-78
2023/08/31 03:50:57;;;;;;;38.92;35.63;;;9.70;99.90;;;;;;6241510;22;20020;-78
2023/08/31 03:53:23;;;;;;;27.45;24.98;;;9.80;99.90;;;;;;6239758;23;20016;-78
2023/08/31 03:55:49;;;;;;;34.78;32.08;;;9.90;99.90;;;;;;6214306;23;20012;-78
2023/08/31 03:58:14;;;;;;;33.75;31.23;;;10.00;99.90;;;;;;6240038;23;20083;-78
2023/08/31 04:00:41;;;;;;;29.77;27.40;;;10.00;99.90;;;;;;6242555;23;20375;-78
2023/08/31 04:03:06;;;;;;;34.15;31.30;;;10.10;99.90;;;;;;6239581;23;20096;-78
2023/08/31 04:05:33;;;;;;;25.02;23.27;;;10.10;99.90;;;;;;6239318;23;20498;-78
2023/08/31 04:07:59;;;;;;;29.60;27.27;;;10.30;99.90;;;;;;6239622;23;20435;-78
2023/08/31 04:10:26;;;;;;;24.77;22.67;;;10.20;99.90;;;;;;6214411;23;20057;-78
2023/08/31 04:12:52;;;;;;;31.83;29.67;;;10.20;99.90;;;;;;6239687;23;20187;-78
2023/08/31 04:15:17;;;;;;;32.20;29.88;;;10.20;99.90;;;;;;6239050;23;20270;-78
2023/08/31 04:17:43;;;;;;;32.25;29.55;;;10.20;99.90;;;;;;6239508;23;20014;-78
2023/08/31 04:20:10;;;;;;;32.55;30.33;;;10.10;99.90;;;;;;6214095;23;20030;-78
2023/08/31 04:22:36;;;;;;;28.27;26.13;;;10.10;99.90;;;;;;6214339;23;20008;-78
2023/08/31 04:25:02;;;;;;;33.22;30.92;;;10.10;99.90;;;;;;6239710;23;20390;-78
2023/08/31 04:27:30;;;;;;;35.38;32.65;;;10.10;99.90;;;;;;6241367;22;20008;-78
2023/08/31 04:29:55;;;;;;;31.00;28.15;;;10.10;99.90;;;;;;6213657;23;20012;-77
2023/08/31 04:32:21;;;;;;;32.85;29.70;;;10.20;99.90;;;;;;6214124;23;20035;-78
2023/08/31 04:34:46;;;;;;;33.95;31.42;;;10.10;99.90;;;;;;6241188;22;20031;-78
2023/08/31 04:37:12;;;;;;;37.05;33.92;;;10.20;99.90;;;;;;6241310;23;20077;-78
2023/08/31 04:39:38;;;;;;;35.40;31.88;;;10.20;99.90;;;;;;6214233;23;20008;-78
2023/08/31 04:42:04;;;;;;;37.17;34.42;;;10.20;99.90;;;;;;6241060;23;20020;-78
2023/08/31 04:44:30;;;;;;;36.35;33.55;;;10.10;99.90;;;;;;6238864;23;20016;-78
2023/08/31 04:46:55;;;;;;;33.33;30.80;;;10.20;99.90;;;;;;6214066;23;20019;-78
2023/08/31 04:49:21;;;;;;;37.30;34.50;;;10.20;99.90;;;;;;6239681;23;20339;-78
2023/08/31 04:51:47;;;;;;;34.25;31.52;;;10.10;99.90;;;;;;6239770;23;20015;-78
2023/08/31 04:54:12;;;;;;;38.92;35.97;;;10.10;99.90;;;;;;6239378;23;20008;-78
2023/08/31 04:56:38;;;;;;;37.53;34.53;;;10.20;99.90;;;;;;6239265;23;20351;-78
2023/08/31 04:59:04;;;;;;;36.00;32.88;;;10.20;99.90;;;;;;6240828;22;20039;-78
2023/08/31 05:01:30;;;;;;;38.85;35.05;;;10.20;99.90;;;;;;6239293;23;20023;-78
2023/08/31 05:03:55;;;;;;;40.13;37.17;;;10.30;99.90;;;;;;6239072;23;20004;-78
2023/08/31 05:06:21;;;;;;;41.97;38.70;;;10.30;99.90;;;;;;6239121;23;20012;-78
2023/08/31 05:08:48;;;;;;;36.78;33.60;;;10.30;99.90;;;;;;6239184;23;20019;-78
2023/08/31 05:11:14;;;;;;;40.95;37.35;;;10.40;99.90;;;;;;6213671;23;20058;-78
2023/08/31 05:13:42;;;;;;;39.88;35.88;;;10.40;99.90;;;;;;6213160;23;20019;-78
2023/08/31 05:16:08;;;;;;;40.17;37.22;;;10.40;99.90;;;;;;6213599;23;20027;-78
2023/08/31 05:18:34;;;;;;;39.83;36.55;;;10.50;99.90;;;;;;6239021;23;20087;-78
2023/08/31 05:20:59;;;;;;;36.47;33.42;;;10.50;99.90;;;;;;6238896;23;20075;-78
2023/08/31 05:23:25;;;;;;;37.85;33.88;;;10.60;99.90;;;;;;6240799;23;20019;-77
2023/08/31 05:25:51;;;;;;;39.08;35.47;;;10.60;99.90;;;;;;6214194;23;20634;-78
2023/08/31 05:28:17;;;;;;;40.45;36.95;;;10.60;99.90;;;;;;6240546;23;20097;-77
2023/08/31 05:30:53;;;;;;;38.83;35.35;;;10.80;99.90;;;;;;6213449;23;20488;-78
2023/08/31 05:33:19;;;;;;;38.03;34.78;;;10.70;99.90;;;;;;6238763;23;20443;-79
2023/08/31 05:35:45;;;;;;;37.38;34.08;;;10.80;99.90;;;;;;6238706;23;20008;-78
2023/08/31 05:38:12;;;;;;;37.70;34.42;;;10.80;99.90;;;;;;6238861;23;20043;-78
2023/08/31 05:40:38;;;;;;;38.65;35.22;;;10.80;99.90;;;;;;6239207;23;20012;-79
2023/08/31 05:43:03;;;;;;;38.35;34.85;;;10.90;99.90;;;;;;6237928;23;20018;-78
2023/08/31 05:45:33;;;;;;;30.50;27.55;;;10.90;99.90;;;;;;6238966;23;20008;-78
2023/08/31 05:48:00;;;;;;;32.80;29.80;;;10.90;99.90;;;;;;6240545;22;20058;-78
2023/08/31 05:50:26;;;;;;;31.00;28.33;;;11.00;99.90;;;;;;6240543;22;20444;-78
2023/08/31 05:52:52;;;;;;;31.30;28.05;;;11.00;99.90;;;;;;6239237;23;20387;-78
2023/08/31 05:55:17;;;;;;;30.88;28.42;;;11.30;99.90;;;;;;6240929;23;20018;-78
2023/08/31 05:57:43;;;;;;;31.13;28.40;;;11.10;99.90;;;;;;6212882;23;20059;-78
2023/08/31 06:00:09;;;;;;;32.60;29.25;;;11.20;99.90;;;;;;6213308;23;20320;-78
2023/08/31 06:02:35;;;;;;;31.60;28.73;;;11.40;99.90;;;;;;6238964;23;20008;-77
2023/08/31 06:05:01;;;;;;;27.88;25.55;;;11.60;99.90;;;;;;6239077;23;20014;-78
2023/08/31 06:07:29;;;;;;;25.63;23.23;;;11.90;99.90;;;;;;6215555;23;20062;-77
2023/08/31 06:09:55;;;;;;;20.50;18.65;;;12.60;99.90;;;;;;6214874;23;20004;-78
2023/08/31 06:12:20;;;;;;;17.23;15.48;;;13.30;99.90;;;;;;6215601;23;20070;-78
2023/08/31 06:14:46;;;;;;;18.15;12.93;;;14.30;99.90;;;;;;6242600;23;20015;-78
2023/08/31 06:17:13;;;;;;;12.30;10.93;;;15.30;99.90;;;;;;6215929;23;20207;-78
2023/08/31 06:19:39;;;;;;;8.68;7.82;;;16.30;99.90;;;;;;6240950;23;20019;-78
2023/08/31 06:22:05;;;;;;;12.25;10.43;;;17.20;99.90;;;;;;6215353;23;20016;-78
2023/08/31 06:24:32;;;;;;;12.80;11.63;;;17.80;99.90;;;;;;6240621;23;20126;-78
2023/08/31 06:26:57;;;;;;;10.68;8.35;;;18.50;99.90;;;;;;6240667;23;20008;-78
2023/08/31 06:29:23;;;;;;;10.57;8.05;;;19.00;99.90;;;;;;6215276;23;20079;-78
2023/08/31 06:31:49;;;;;;;10.23;9.27;;;19.40;99.90;;;;;;6242068;22;20058;-78
2023/08/31 06:34:14;;;;;;;10.80;9.77;;;19.80;99.90;;;;;;6240676;23;20039;-78
2023/08/31 06:36:40;;;;;;;14.43;13.27;;;20.10;99.90;;;;;;6240584;23;20023;-78
2023/08/31 06:39:06;;;;;;;12.38;11.27;;;20.50;99.90;;;;;;6242109;23;20012;-80
2023/08/31 06:41:32;;;;;;;13.18;12.02;;;20.90;99.90;;;;;;6240206;23;20084;-78
2023/08/31 06:43:58;;;;;;;13.82;12.73;;;21.00;99.90;;;;;;6242227;22;20043;-78
2023/08/31 06:46:24;;;;;;;13.32;12.35;;;20.40;99.90;;;;;;6242350;23;20012;-78
2023/08/31 06:48:49;;;;;;;11.25;10.23;;;19.70;99.90;;;;;;6240593;23;20004;-79
2023/08/31 06:51:15;;;;;;;10.48;9.48;;;18.90;99.90;;;;;;6240519;23;20014;-78
2023/08/31 06:53:43;;;;;;;16.23;13.07;;;18.20;99.90;;;;;;6240458;23;20509;-77
2023/08/31 06:56:09;;;;;;;13.98;12.65;;;17.70;99.90;;;;;;6242219;22;20016;-77
2023/08/31 06:58:34;;;;;;;11.57;10.57;;;17.20;99.90;;;;;;6240361;23;20012;-78
2023/08/31 07:01:01;;;;;;;16.30;11.23;;;16.90;99.90;;;;;;6240379;23;20055;-78
2023/08/31 07:03:26;;;;;;;14.50;13.40;;;16.70;99.90;;;;;;6214984;23;20079;-78
2023/08/31 07:05:52;;;;;;;11.93;10.88;;;16.40;99.90;;;;;;6242264;23;20070;-78
2023/08/31 07:08:18;;;;;;;12.75;11.55;;;16.20;99.90;;;;;;6214404;23;20009;-78
2023/08/31 07:10:43;;;;;;;16.30;15.02;;;16.10;99.90;;;;;;6215040;23;20091;-78
2023/08/31 07:13:09;;;;;;;13.10;12.10;;;15.90;99.90;;;;;;6240455;23;20034;-78
2023/08/31 07:15:35;;;;;;;13.43;12.43;;;15.90;99.90;;;;;;6242003;23;20016;-78
2023/08/31 07:18:01;;;;;;;16.00;14.55;;;15.80;99.90;;;;;;6239696;23;20162;-78
2023/08/31 07:20:26;;;;;;;16.58;14.95;;;15.80;99.90;;;;;;6214738;23;20047;-78
2023/08/31 07:22:52;;;;;;;14.20;12.63;;;15.70;99.90;;;;;;6239316;23;20087;-78
2023/08/31 07:25:17;;;;;;;12.40;11.32;;;15.70;99.90;;;;;;6240101;23;20308;-77
2023/08/31 07:27:43;;;;;;;15.80;14.40;;;15.80;99.90;;;;;;6214637;23;20039;-78
2023/08/31 07:30:10;;;;;;;16.20;14.85;;;15.80;99.90;;;;;;6214553;23;20042;-79
2023/08/31 07:32:36;;;;;;;17.10;15.85;;;15.80;99.90;;;;;;6241527;22;20084;-78
2023/08/31 07:35:04;;;;;;;17.42;15.82;;;15.90;99.90;;;;;;6215039;23;20023;-78
2023/08/31 07:37:30;;;;;;;10.95;9.95;;;15.90;99.90;;;;;;6213975;23;20470;-78
2023/08/31 07:39:55;;;;;;;15.75;14.57;;;15.90;99.90;;;;;;6214851;23;20008;-78
2023/08/31 07:42:21;;;;;;;15.65;14.55;;;15.60;99.90;;;;;;6239552;23;20027;-78
2023/08/31 07:44:47;;;;;;;16.23;15.05;;;16.00;99.90;;;;;;6240273;23;20009;-78
2023/08/31 07:47:12;;;;;;;16.83;15.68;;;16.00;99.90;;;;;;6214703;23;20012;-78
2023/08/31 07:49:38;;;;;;;15.02;13.77;;;16.00;99.90;;;;;;6239849;23;20022;-78
2023/08/31 07:52:04;;;;;;;16.25;15.05;;;16.10;99.90;;;;;;6239377;23;20496;-78
2023/08/31 07:54:31;;;;;;;12.25;11.48;;;16.10;99.90;;;;;;6239819;23;20044;-78
2023/08/31 07:56:56;;;;;;;20.25;18.98;;;16.10;99.90;;;;;;6241524;23;20012;-78
2023/08/31 07:59:22;;;;;;;15.27;14.05;;;16.00;99.90;;;;;;6241538;23;20023;-78
2023/08/31 08:01:48;;;;;;;15.00;13.73;;;16.10;99.90;;;;;;6214241;23;20455;-79
2023/08/31 08:04:13;;;;;;;15.48;14.32;;;16.20;99.90;;;;;;6240203;23;20008;-78
2023/08/31 08:06:39;;;;;;;21.88;20.38;;;16.20;99.90;;;;;;6239451;23;20012;-78
2023/08/31 08:09:05;;;;;;;17.90;16.55;;;16.20;99.90;;;;;;6239763;23;20035;-78
2023/08/31 08:11:31;;;;;;;18.20;16.88;;;16.30;99.90;;;;;;6241754;22;20016;-78
2023/08/31 08:13:57;;;;;;;22.00;20.30;;;16.30;99.90;;;;;;6214305;23;20008;-78
2023/08/31 08:16:23;;;;;;;15.90;14.70;;;16.40;99.90;;;;;;6214413;23;20527;-78
2023/08/31 08:18:50;;;;;;;16.63;15.45;;;16.50;99.90;;;;;;6239620;23;20008;-78
2023/08/31 08:21:15;;;;;;;14.80;13.50;;;16.50;99.90;;;;;;6213585;23;20142;-78
2023/08/31 08:23:41;;;;;;;15.35;12.43;;;16.60;99.90;;;;;;6239940;23;20048;-78
2023/08/31 08:26:07;;;;;;;14.13;11.93;;;16.50;99.90;;;;;;6239607;23;20050;-78
2023/08/31 08:28:33;;;;;;;11.23;10.27;;;16.60;99.90;;;;;;6239344;23;20091;-78
2023/08/31 08:31:03;;;;;;;14.52;13.23;;;16.60;99.90;;;;;;6239443;23;20012;-79
2023/08/31 08:33:29;;;;;;;15.52;14.32;;;16.90;99.90;;;;;;6239433;23;20008;-79
2023/08/31 08:35:58;;;;;;;13.15;12.10;;;17.10;99.90;;;;;;6238914;23;20016;-78
2023/08/31 08:38:25;;;;;;;13.70;12.70;;;17.50;99.90;;;;;;6239338;23;20016;-78
2023/08/31 08:40:50;;;;;;;18.77;17.25;;;17.60;99.90;;;;;;6239280;23;20016;-79
2023/08/31 08:43:23;;;;;;;18.08;16.67;;;17.60;99.90;;;;;;6239118;23;20340;-79
2023/08/31 08:45:51;;;;;;;19.08;17.80;;;17.80;99.90;;;;;;6214111;23;20044;-79
2023/08/31 08:48:18;;;;;;;15.55;14.50;;;17.90;99.90;;;;;;6239358;23;20005;-79
2023/08/31 08:50:45;;;;;;;22.05;20.55;;;18.00;99.90;;;;;;6238987;23;20016;-79
2023/08/31 08:53:13;;;;;;;23.30;21.58;;;18.40;99.90;;;;;;6213845;23;20012;-79
2023/08/31 08:55:40;;;;;;;19.17;17.88;;;18.60;99.90;;;;;;6239424;23;20008;-78
2023/08/31 08:58:06;;;;;;;20.92;19.58;;;18.80;99.90;;;;;;6213908;23;20019;-78
2023/08/31 09:00:32;;;;;;;17.67;16.38;;;19.30;99.90;;;;;;6213866;23;20024;-79
2023/08/31 09:03:03;;;;;;;20.98;19.52;;;19.90;99.90;;;;;;6239818;23;20112;-78
2023/08/31 09:05:32;;;;;;;21.38;19.98;;;19.90;99.90;;;;;;6240732;22;20004;-79
2023/08/31 09:08:02;;;;;;;19.58;18.20;;;19.80;99.90;;;;;;6239742;23;20012;-79
2023/08/31 09:10:42;;;;;;;20.83;19.33;;;19.50;99.90;;;;;;6214223;23;20378;-79
2023/08/31 09:13:12;;;;;;;18.08;16.85;;;19.50;99.90;;;;;;6213848;23;20052;-79
2023/08/31 09:15:44;;;;;;;20.05;18.55;;;19.80;99.90;;;;;;6214150;23;20019;-79
2023/08/31 09:18:31;;;;;;;20.02;18.73;;;20.90;99.90;;;;;;6239396;23;20004;-79
2023/08/31 09:20:57;;;;;;;15.10;13.60;;;21.80;99.90;;;;;;6239046;23;20325;-79
2023/08/31 09:23:23;;;;;;;19.83;18.55;;;22.40;99.90;;;;;;6238910;23;20371;-79
2023/08/31 09:25:53;;;;;;;16.13;15.07;;;21.70;99.90;;;;;;6239109;23;20012;-79
2023/08/31 09:28:26;;;;;;;20.25;17.23;;;20.20;99.90;;;;;;6239144;23;20012;-79
2023/08/31 09:30:53;;;;;;;14.63;13.48;;;19.00;99.90;;;;;;6240393;22;20020;-78
2023/08/31 09:33:22;;;;;;;16.52;15.43;;;17.70;99.90;;;;;;6238680;23;20016;-78
2023/08/31 09:35:51;;;;;;;18.80;17.58;;;17.00;99.90;;;;;;6213537;23;20061;-77
2023/08/31 09:38:18;;;;;;;17.20;15.95;;;16.50;99.90;;;;;;6238952;23;20104;-78
2023/08/31 09:40:43;;;;;;;17.85;16.50;;;16.10;99.90;;;;;;6238899;23;20012;-77
2023/08/31 09:43:09;;;;;;;18.75;17.55;;;15.80;99.90;;;;;;6240347;22;20023;-77
2023/08/31 09:45:37;;;;;;;20.98;19.60;;;15.60;99.90;;;;;;6240742;23;20343;-77
2023/08/31 09:48:04;;;;;;;26.35;24.75;;;15.60;99.90;;;;;;6238622;23;20016;-78
2023/08/31 09:50:33;;;;;;;22.90;21.60;;;15.80;99.90;;;;;;6238684;23;20335;-77
2023/08/31 09:53:08;;;;;;;20.10;18.92;;;16.00;99.90;;;;;;6240921;22;20363;-78
2023/08/31 09:55:35;;;;;;;19.50;18.10;;;16.10;99.90;;;;;;6213709;23;20012;-78
2023/08/31 09:58:04;;;;;;;16.40;15.40;;;16.20;99.90;;;;;;6240353;22;20012;-78
2023/08/31 10:00:31;;;;;;;19.88;18.60;;;16.20;99.90;;;;;;6238652;23;20020;-77
2023/08/31 10:03:02;;;;;;;15.38;14.32;;;16.30;99.90;;;;;;6212898;23;20013;-78
2023/08/31 10:05:28;;;;;;;12.75;11.95;;;16.50;99.90;;;;;;6213668;23;20008;-77
2023/08/31 10:07:54;;;;;;;13.45;12.65;;;16.70;99.90;;;;;;6239063;23;20044;-77
2023/08/31 10:10:22;;;;;;;18.88;17.67;;;17.00;99.90;;;;;;6213469;23;20008;-77
2023/08/31 10:12:52;;;;;;;14.98;14.05;;;17.30;99.90;;;;;;6238739;23;20012;-78
2023/08/31 10:15:18;;;;;;;18.40;16.83;;;17.60;99.90;;;;;;6213666;23;20458;-78
2023/08/31 10:17:45;;;;;;;16.17;15.02;;;17.80;99.90;;;;;;6238254;23;20339;-78
2023/08/31 10:20:17;;;;;;;17.15;15.93;;;17.80;99.90;;;;;;6238640;23;20048;-78
2023/08/31 10:22:43;;;;;;;15.75;14.65;;;17.60;99.90;;;;;;6240648;22;20036;-78
2023/08/31 10:25:11;;;;;;;15.45;14.45;;;17.20;99.90;;;;;;6213655;23;20008;-78
2023/08/31 10:27:38;;;;;;;18.58;17.10;;;16.90;99.90;;;;;;6238614;23;20008;-78
2023/08/31 10:30:36;;;;;;;14.50;13.45;;;16.70;99.90;;;;;;6240160;22;20055;-78
2023/08/31 10:33:21;;;;;;;15.27;14.27;;;16.60;99.90;;;;;;6147457;23;20099;-78
2023/08/31 10:35:52;;;;;;;16.27;15.15;;;16.60;99.90;;;;;;6240484;22;20035;-78
2023/08/31 10:38:31;;;;;;;17.38;16.38;;;16.60;99.90;;;;;;6213457;23;20374;-78
2023/08/31 10:41:06;;;;;;;18.48;17.33;;;16.80;99.90;;;;;;6238310;23;20004;-78
2023/08/31 10:43:57;;;;;;;17.33;16.08;;;17.00;99.90;;;;;;6238294;23;20016;-79
2023/08/31 10:46:43;;;;;;;15.32;14.25;;;17.00;99.90;;;;;;6237931;23;20012;-78
2023/08/31 10:49:11;;;;;;;14.93;13.82;;;17.20;99.90;;;;;;6238694;23;20060;-78
2023/08/31 10:51:42;;;;;;;15.93;14.52;;;17.50;99.90;;;;;;6238506;23;20012;-78
2023/08/31 10:54:10;;;;;;;17.45;16.10;;;17.50;99.90;;;;;;6240571;23;20078;-78
2023/08/31 10:56:57;;;;;;;14.95;13.95;;;17.60;99.90;;;;;;6240834;23;20022;-78
2023/08/31 10:59:25;;;;;;;22.40;20.88;;;17.80;99.90;;;;;;6241792;23;20447;-78
2023/08/31 11:01:59;;;;;;;15.00;13.98;;;17.80;99.90;;;;;;6241318;22;20015;-78
2023/08/31 11:04:27;;;;;;;17.10;15.90;;;18.00;99.90;;;;;;6240234;23;20008;-78
2023/08/31 11:07:18;;;;;;;16.20;15.07;;;18.20;99.90;;;;;;6242203;22;20051;-78
2023/08/31 11:09:46;;;;;;;19.92;18.52;;;18.50;99.90;;;;;;6242342;22;20008;-78
2023/08/31 11:12:13;;;;;;;23.05;21.75;;;18.60;99.90;;;;;;6240152;23;20031;-78
2023/08/31 11:14:39;;;;;;;21.92;20.50;;;18.80;99.90;;;;;;6214682;23;20138;-78
2023/08/31 11:17:05;;;;;;;22.73;21.33;;;19.00;99.90;;;;;;6214975;23;20013;-78
2023/08/31 11:19:32;;;;;;;23.05;21.35;;;19.10;99.90;;;;;;6240058;23;20043;-78
2023/08/31 11:21:58;;;;;;;22.27;20.95;;;19.40;99.90;;;;;;6240017;23;20012;-78
2023/08/31 11:24:24;;;;;;;22.85;21.08;;;19.40;99.90;;;;;;6240121;23;20012;-78
2023/08/31 11:26:51;;;;;;;20.45;19.25;;;19.50;99.90;;;;;;6214846;23;20015;-78
2023/08/31 11:29:17;;;;;;;19.05;17.90;;;19.30;99.90;;;;;;6239692;23;20012;-78
2023/08/31 11:31:43;;;;;;;21.05;19.38;;;19.10;99.90;;;;;;6240285;23;20290;-78
2023/08/31 11:34:16;;;;;;;26.30;24.55;;;18.90;99.90;;;;;;6242023;22;20016;-78
2023/08/31 11:36:42;;;;;;;18.25;17.15;;;19.00;99.90;;;;;;6240393;23;20029;-78
2023/08/31 11:39:12;;;;;;;30.20;28.27;;;19.20;99.90;;;;;;6241506;22;20435;-78
2023/08/31 11:41:41;;;;;;;20.55;19.27;;;19.30;99.90;;;;;;6239896;23;20195;-78
2023/08/31 11:44:17;;;;;;;23.00;21.50;;;19.40;99.90;;;;;;6239286;23;20015;-78
2023/08/31 11:46:48;;;;;;;16.83;15.73;;;19.50;99.90;;;;;;6240446;23;20023;-78
2023/08/31 11:49:13;;;;;;;31.05;28.90;;;19.60;99.90;;;;;;6240299;23;20324;-78
2023/08/31 11:51:40;;;;;;;23.88;22.38;;;19.70;99.90;;;;;;6239919;23;20031;-78
2023/08/31 11:54:06;;;;;;;23.98;22.23;;;19.80;99.90;;;;;;6241762;22;20012;-78
2023/08/31 11:56:49;;;;;;;20.60;19.30;;;19.90;99.90;;;;;;6239838;23;20153;-78
2023/08/31 11:59:19;;;;;;;21.50;19.98;;;19.90;99.90;;;;;;6241299;22;20018;-78
2023/08/31 12:01:49;;;;;;;31.50;29.60;;;20.00;99.90;;;;;;6214211;23;20038;-78
2023/08/31 12:04:25;;;;;;;22.23;20.73;;;20.10;99.90;;;;;;6241394;22;20014;-78
2023/08/31 12:06:53;;;;;;;27.40;25.77;;;20.20;99.90;;;;;;6240086;23;20013;-78
2023/08/31 12:09:23;;;;;;;23.27;21.67;;;20.10;99.90;;;;;;6241514;22;20004;-78
2023/08/31 12:11:51;;;;;;;24.13;22.50;;;20.50;99.90;;;;;;6214471;23;20012;-79
2023/08/31 12:14:22;;;;;;;7.57;6.95;;;20.70;99.90;;;;;;6213715;23;20451;-79
2023/08/31 12:16:48;;;;;;;20.00;18.83;;;20.70;99.90;;;;;;6239657;23;20016;-78
2023/08/31 12:19:13;;;;;;;13.30;12.35;;;20.80;99.90;;;;;;6214215;23;20019;-79
2023/08/31 12:21:41;;;;;;;11.73;10.88;;;21.00;99.90;;;;;;6214160;23;20008;-79
2023/08/31 12:24:07;;;;;;;21.50;19.90;;;21.00;99.90;;;;;;6241489;22;20083;-78
2023/08/31 12:26:34;;;;;;;45.13;42.08;;;21.00;99.90;;;;;;6239586;23;20455;-79
2023/08/31 12:28:59;;;;;;;15.68;14.55;;;20.80;99.90;;;;;;6239006;23;20063;-78
2023/08/31 12:31:25;;;;;;;25.85;24.13;;;20.50;99.90;;;;;;6239811;23;20043;-79